createdAt,value
2018-02-19T00:00:39.919Z,3.75
2018-02-19T00:01:54.877Z,3.76
2018-02-19T00:03:09.417Z,3.8
2018-02-19T00:04:23.534Z,3.81
2018-02-19T00:05:38.029Z,3.81
2018-02-19T00:06:52.791Z,3.82
2018-02-19T00:08:06.803Z,3.83
2018-02-19T00:09:20.602Z,3.84
2018-02-19T00:10:35.148Z,3.85
2018-02-19T00:11:49.685Z,3.82
2018-02-19T00:13:04.283Z,3.8
2018-02-19T00:14:18.815Z,3.77
2018-02-19T00:15:32.839Z,3.75
2018-02-19T00:16:47.359Z,3.74
2018-02-19T00:18:01.348Z,3.73
2018-02-19T00:19:15.355Z,3.71
2018-02-19T00:20:29.864Z,3.69
2018-02-19T00:21:44.137Z,3.65
2018-02-19T00:22:57.905Z,3.61
2018-02-19T00:24:12.402Z,3.57
2018-02-19T00:25:25.950Z,3.53
2018-02-19T00:26:40.490Z,3.48
2018-02-19T00:27:55.216Z,3.44
2018-02-19T00:29:09.465Z,3.4
2018-02-19T00:30:23.563Z,3.35
2018-02-19T00:31:37.947Z,3.3
2018-02-19T00:32:52.338Z,3.29
2018-02-19T00:34:06.882Z,3.29
2018-02-19T00:35:21.112Z,3.27
2018-02-19T00:36:35.344Z,3.25
2018-02-19T00:37:49.597Z,3.23
2018-02-19T00:39:03.606Z,3.2
2018-02-19T00:40:17.835Z,3.16
2018-02-19T00:41:31.577Z,3.14
2018-02-19T00:42:45.575Z,3.11
2018-02-19T00:44:00.314Z,3.07
2018-02-19T00:45:14.850Z,3.05
2018-02-19T00:46:29.677Z,3.06
2018-02-19T00:47:43.686Z,3.05
2018-02-19T00:48:58.199Z,3.02
2018-02-19T00:50:12.726Z,3.01
2018-02-19T00:51:26.459Z,3.02
2018-02-19T00:52:40.694Z,3.02
2018-02-19T00:53:55.202Z,3.03
2018-02-19T00:55:09.192Z,3.06
2018-02-19T00:56:23.902Z,3.07
2018-02-19T00:57:37.918Z,3.1
2018-02-19T00:58:52.133Z,3.12
2018-02-19T01:00:06.140Z,3.14
2018-02-19T01:01:20.430Z,3.16
2018-02-19T01:02:34.676Z,3.19
2018-02-19T01:03:48.437Z,3.22
2018-02-19T01:05:02.115Z,3.27
2018-02-19T01:06:16.826Z,3.32
2018-02-19T01:07:31.103Z,3.35
2018-02-19T01:08:45.119Z,3.37
2018-02-19T01:09:59.112Z,3.39
2018-02-19T01:11:13.412Z,3.4
2018-02-19T01:12:27.406Z,3.39
2018-02-19T01:13:41.415Z,3.37
2018-02-19T01:14:55.431Z,3.39
2018-02-19T01:16:09.432Z,3.39
2018-02-19T01:17:23.456Z,3.4
2018-02-19T01:18:37.709Z,3.41
2018-02-19T01:19:52.219Z,3.41
2018-02-19T01:21:06.497Z,3.38
2018-02-19T01:22:20.737Z,3.36
2018-02-19T01:23:35.004Z,3.34
2018-02-19T01:24:49.262Z,3.33
2018-02-19T01:26:03.282Z,3.33
2018-02-19T01:27:17.301Z,3.34
2018-02-19T01:28:31.823Z,3.36
2018-02-19T01:29:45.793Z,3.36
2018-02-19T01:31:00.014Z,3.37
2018-02-19T01:32:14.007Z,3.39
2018-02-19T01:33:28.478Z,3.4
2018-02-19T01:34:42.487Z,3.4
2018-02-19T01:35:55.804Z,3.38
2018-02-19T01:37:10.301Z,3.32
2018-02-19T01:38:24.149Z,3.27
2018-02-19T01:39:38.853Z,3.2
2018-02-19T01:40:52.861Z,3.16
2018-02-19T01:42:06.837Z,3.1
2018-02-19T01:43:20.604Z,3.04
2018-02-19T01:44:34.340Z,2.97
2018-02-19T01:45:48.304Z,2.92
2018-02-19T01:47:03.054Z,2.87
2018-02-19T01:48:17.042Z,2.78
2018-02-19T01:49:31.318Z,2.72
2018-02-19T01:50:45.778Z,2.65
2018-02-19T01:52:00.276Z,2.59
2018-02-19T01:53:14.484Z,2.5
2018-02-19T01:54:28.710Z,2.46
2018-02-19T01:55:42.980Z,2.4
2018-02-19T01:56:56.509Z,2.35
2018-02-19T01:58:11.009Z,2.3
2018-02-19T01:59:25.459Z,2.27
2018-02-19T02:00:40.176Z,2.22
2018-02-19T02:01:54.216Z,2.15
2018-02-19T02:03:08.221Z,2.12
2018-02-19T02:04:22.459Z,2.09
2018-02-19T02:05:36.183Z,2.05
2018-02-19T02:06:50.411Z,2.04
2018-02-19T02:08:04.392Z,2.02
2018-02-19T02:09:19.149Z,1.95
2018-02-19T02:10:33.383Z,1.87
2018-02-19T02:11:47.216Z,1.79
2018-02-19T02:13:01.211Z,1.7
2018-02-19T02:14:15.445Z,1.64
2018-02-19T02:15:29.655Z,1.6
2018-02-19T02:16:43.836Z,1.56
2018-02-19T02:17:58.325Z,1.51
2018-02-19T02:19:12.316Z,1.44
2018-02-19T02:20:26.758Z,1.4
2018-02-19T02:21:41.465Z,1.38
2018-02-19T02:22:55.684Z,1.39
2018-02-19T02:24:08.927Z,1.41
2018-02-19T02:25:22.926Z,1.44
2018-02-19T02:26:36.935Z,1.47
2018-02-19T02:27:51.159Z,1.47
2018-02-19T02:29:05.169Z,1.48
2018-02-19T02:30:19.433Z,1.45
2018-02-19T02:31:33.425Z,1.46
2018-02-19T02:32:47.902Z,1.46
2018-02-19T02:34:02.392Z,1.47
2018-02-19T02:35:16.392Z,1.51
2018-02-19T02:36:31.111Z,1.53
2018-02-19T02:37:45.333Z,1.57
2018-02-19T02:38:59.376Z,1.6
2018-02-19T02:40:13.628Z,1.63
2018-02-19T02:41:28.113Z,1.65
2018-02-19T02:42:42.361Z,1.68
2018-02-19T02:43:56.388Z,1.68
2018-02-19T02:45:10.456Z,1.68
2018-02-19T02:46:24.696Z,1.63
2018-02-19T02:47:38.679Z,1.61
2018-02-19T02:48:52.923Z,1.56
2018-02-19T02:50:06.980Z,1.52
2018-02-19T02:51:21.506Z,1.47
2018-02-19T02:54:19.605Z,1.44
2018-02-19T02:55:33.440Z,1.44
2018-02-19T02:56:48.014Z,1.48
2018-02-19T02:58:02.292Z,1.52
2018-02-19T02:59:17.057Z,1.57
2018-02-19T03:00:30.790Z,1.6
2018-02-19T03:01:45.291Z,1.63
2018-02-19T03:02:59.774Z,1.68
2018-02-19T03:04:14.023Z,1.71
2018-02-19T03:05:28.305Z,1.71
2018-02-19T03:06:42.547Z,1.74
2018-02-19T03:07:56.797Z,1.74
2018-02-19T03:09:11.021Z,1.7
2018-02-19T03:10:25.247Z,1.65
2018-02-19T03:11:39.698Z,1.61
2018-02-19T03:12:53.992Z,1.56
2018-02-19T03:14:08.486Z,1.51
2018-02-19T03:15:22.481Z,1.49
2018-02-19T03:16:36.954Z,1.47
2018-02-19T03:17:51.554Z,1.45
2018-02-19T03:19:06.012Z,1.43
2018-02-19T03:20:20.008Z,1.45
2018-02-19T03:21:33.982Z,1.46
2018-02-19T03:22:47.709Z,1.47
2018-02-19T03:24:01.179Z,1.47
2018-02-19T03:25:15.140Z,1.43
2018-02-19T03:26:29.710Z,1.4
2018-02-19T03:27:44.090Z,1.38
2018-02-19T03:28:58.312Z,1.37
2018-02-19T03:30:12.815Z,1.39
2018-02-19T03:31:27.051Z,1.37
2018-02-19T03:32:41.552Z,1.37
2018-02-19T03:33:55.847Z,1.41
2018-02-19T03:35:09.094Z,1.45
2018-02-19T03:36:23.617Z,1.49
2018-02-19T03:37:38.103Z,1.54
2018-02-19T03:38:52.110Z,1.52
2018-02-19T03:40:06.585Z,1.5
2018-02-19T03:41:20.077Z,1.5
2018-02-19T03:42:34.293Z,1.54
2018-02-19T03:43:48.762Z,1.59
2018-02-19T03:45:02.755Z,1.62
2018-02-19T03:46:16.784Z,1.65
2018-02-19T03:47:30.535Z,1.69
2018-02-19T03:48:45.043Z,1.72
2018-02-19T03:49:59.067Z,1.71
2018-02-19T03:51:13.424Z,1.69
2018-02-19T03:52:27.411Z,1.66
2018-02-19T03:53:41.385Z,1.65
2018-02-19T03:54:55.145Z,1.55
2018-02-19T03:56:08.911Z,1.54
2018-02-19T03:57:23.626Z,1.54
2018-02-19T03:58:38.343Z,1.54
2018-02-19T03:59:52.816Z,1.46
2018-02-19T04:01:06.795Z,1.42
2018-02-19T04:02:21.287Z,1.41
2018-02-19T04:03:34.801Z,1.38
2018-02-19T04:04:48.529Z,1.4
2018-02-19T04:06:02.778Z,1.42
2018-02-19T04:07:16.986Z,1.42
2018-02-19T04:08:31.467Z,1.43
2018-02-19T04:09:45.469Z,1.4
2018-02-19T04:10:59.443Z,1.41
2018-02-19T04:12:13.441Z,1.39
2018-02-19T04:13:27.916Z,1.4
2018-02-19T04:14:42.142Z,1.4
2018-02-19T04:15:56.360Z,1.4
2018-02-19T04:17:11.064Z,1.39
2018-02-19T04:18:25.291Z,1.41
2018-02-19T04:19:39.045Z,1.39
2018-02-19T04:20:53.036Z,1.38
2018-02-19T04:22:07.259Z,1.33
2018-02-19T04:23:21.490Z,1.28
2018-02-19T04:24:36.110Z,1.26
2018-02-19T04:25:50.603Z,1.24
2018-02-19T04:27:04.872Z,1.22
2018-02-19T04:28:19.600Z,1.24
2018-02-19T04:29:33.601Z,1.22
2018-02-19T04:30:47.943Z,1.17
2018-02-19T04:32:02.228Z,1.11
2018-02-19T04:33:16.327Z,1.04
2018-02-19T04:34:30.115Z,1.03
2018-02-19T04:35:44.493Z,0.98
2018-02-19T04:36:58.725Z,0.93
2018-02-19T04:38:12.947Z,0.86
2018-02-19T04:39:26.966Z,0.81
2018-02-19T04:40:41.224Z,0.75
2018-02-19T04:41:55.457Z,0.68
2018-02-19T04:43:09.949Z,0.67
2018-02-19T04:44:24.187Z,0.69
2018-02-19T04:45:53.566Z,0.67
2018-02-19T04:47:08.313Z,0.66
2018-02-19T04:48:22.586Z,0.65
2018-02-19T04:49:36.579Z,0.64
2018-02-19T04:50:51.291Z,0.62
2018-02-19T04:52:05.034Z,0.6
2018-02-19T04:53:19.041Z,0.59
2018-02-19T04:54:32.779Z,0.55
2018-02-19T04:55:46.779Z,0.58
2018-02-19T04:57:00.651Z,0.58
2018-02-19T04:58:14.629Z,0.6
2018-02-19T04:59:29.117Z,0.61
2018-02-19T05:00:43.164Z,0.6
2018-02-19T05:01:57.403Z,0.62
2018-02-19T05:03:11.402Z,0.63
2018-02-19T05:04:25.172Z,0.67
2018-02-19T05:05:39.165Z,0.73
2018-02-19T05:06:53.892Z,0.77
2018-02-19T05:08:08.389Z,0.8
2018-02-19T05:09:22.590Z,0.83
2018-02-19T05:10:36.581Z,0.84
2018-02-19T05:11:50.587Z,0.89
2018-02-19T05:13:04.820Z,0.9
2018-02-19T05:14:19.060Z,0.9
2018-02-19T05:15:33.313Z,0.87
2018-02-19T05:16:47.904Z,0.9
2018-02-19T05:18:02.179Z,0.87
2018-02-19T05:19:16.460Z,0.86
2018-02-19T05:20:30.444Z,0.87
2018-02-19T05:21:44.218Z,0.87
2018-02-19T05:22:58.618Z,0.85
2018-02-19T05:24:12.965Z,0.82
2018-02-19T05:25:27.688Z,0.84
2018-02-19T05:26:42.160Z,0.9
2018-02-19T05:27:55.941Z,0.92
2018-02-19T05:29:10.439Z,0.9
2018-02-19T05:30:24.559Z,0.92
2018-02-19T05:31:39.034Z,0.93
2018-02-19T05:32:53.524Z,0.92
2018-02-19T05:34:07.987Z,0.95
2018-02-19T05:35:22.074Z,0.97
2018-02-19T05:36:36.313Z,0.93
2018-02-19T05:37:50.331Z,0.91
2018-02-19T05:39:05.050Z,0.87
2018-02-19T05:40:19.287Z,0.85
2018-02-19T05:41:34.036Z,0.85
2018-02-19T05:42:47.801Z,0.81
2018-02-19T05:44:01.613Z,0.82
2018-02-19T05:45:15.380Z,0.8
2018-02-19T05:46:28.646Z,0.81
2018-02-19T05:47:43.188Z,0.77
2018-02-19T05:48:57.681Z,0.75
2018-02-19T05:50:12.396Z,0.73
2018-02-19T05:51:26.880Z,0.72
2018-02-19T05:52:41.128Z,0.74
2018-02-19T05:53:55.377Z,0.74
2018-02-19T05:55:09.888Z,0.75
2018-02-19T05:56:24.620Z,0.76
2018-02-19T05:57:38.389Z,0.78
2018-02-19T05:58:53.135Z,0.78
2018-02-19T06:00:06.907Z,0.79
2018-02-19T06:01:20.903Z,0.79
2018-02-19T06:02:35.658Z,0.81
2018-02-19T06:03:50.271Z,0.8
2018-02-19T06:05:03.809Z,0.79
2018-02-19T06:06:18.060Z,0.81
2018-02-19T06:07:31.808Z,0.81
2018-02-19T06:08:45.567Z,0.83
2018-02-19T06:10:00.034Z,0.85
2018-02-19T06:11:13.802Z,0.84
2018-02-19T06:12:28.407Z,0.83
2018-02-19T06:13:42.930Z,0.82
2018-02-19T06:14:57.180Z,0.78
2018-02-19T06:16:10.910Z,0.73
2018-02-19T06:17:25.421Z,0.74
2018-02-19T06:18:39.467Z,0.72
2018-02-19T06:19:53.498Z,0.69
2018-02-19T06:21:07.492Z,0.69
2018-02-19T06:22:21.482Z,0.69
2018-02-19T06:23:35.472Z,0.69
2018-02-19T06:24:49.235Z,0.69
2018-02-19T06:26:03.457Z,0.72
2018-02-19T06:27:17.422Z,0.73
2018-02-19T06:28:31.953Z,0.72
2018-02-19T06:29:46.183Z,0.73
2018-02-19T06:31:00.682Z,0.74
2018-02-19T06:32:14.899Z,0.76
2018-02-19T06:33:29.388Z,0.77
2018-02-19T06:34:43.627Z,0.76
2018-02-19T06:35:58.432Z,0.71
2018-02-19T06:37:12.816Z,0.66
2018-02-19T06:38:27.055Z,0.6
2018-02-19T06:39:41.051Z,0.55
2018-02-19T06:40:55.296Z,0.52
2018-02-19T06:42:09.551Z,0.52
2018-02-19T06:43:23.846Z,0.53
2018-02-19T06:44:38.111Z,0.51
2018-02-19T06:45:52.863Z,0.49
2018-02-19T06:47:07.094Z,0.49
2018-02-19T06:48:21.355Z,0.46
2018-02-19T06:49:35.633Z,0.47
2018-02-19T06:50:49.412Z,0.45
2018-02-19T06:52:03.700Z,0.41
2018-02-19T06:53:18.443Z,0.39
2018-02-19T06:54:33.206Z,0.37
2018-02-19T06:55:47.463Z,0.39
2018-02-19T06:57:01.981Z,0.37
2018-02-19T06:58:15.969Z,0.37
2018-02-19T06:59:30.214Z,0.43
2018-02-19T07:00:44.496Z,0.49
2018-02-19T07:01:59.293Z,0.48
2018-02-19T07:03:12.875Z,0.53
2018-02-19T07:04:26.893Z,0.55
2018-02-19T07:05:41.174Z,0.58
2018-02-19T07:06:55.684Z,0.63
2018-02-19T07:08:09.955Z,0.69
2018-02-19T07:09:24.459Z,0.7
2018-02-19T07:10:38.571Z,0.75
2018-02-19T07:11:53.065Z,0.78
2018-02-19T07:13:07.561Z,0.87
2018-02-19T07:14:22.305Z,0.96
2018-02-19T07:15:36.780Z,1.03
2018-02-19T07:16:50.530Z,1.1
2018-02-19T07:18:04.778Z,1.07
2018-02-19T07:19:18.494Z,1.09
2018-02-19T07:20:32.242Z,1.09
2018-02-19T07:21:46.472Z,1.1
2018-02-19T07:23:00.840Z,1.14
2018-02-19T07:24:14.909Z,1.21
2018-02-19T07:25:28.924Z,1.31
2018-02-19T07:26:43.160Z,1.4
2018-02-19T07:27:57.923Z,1.52
2018-02-19T07:29:12.427Z,1.61
2018-02-19T07:30:26.667Z,1.73
2018-02-19T07:31:41.034Z,1.81
2018-02-19T07:32:55.342Z,1.87
2018-02-19T07:34:09.873Z,1.98
2018-02-19T07:35:23.855Z,2.07
2018-02-19T07:36:37.933Z,2.15
2018-02-19T07:37:52.189Z,2.25
2018-02-19T07:39:05.963Z,2.32
2018-02-19T07:40:19.752Z,2.39
2018-02-19T07:41:33.788Z,2.43
2018-02-19T07:42:48.028Z,2.4
2018-02-19T07:44:02.408Z,2.32
2018-02-19T07:45:16.578Z,2.23
2018-02-19T07:46:30.580Z,2.19
2018-02-19T07:47:45.082Z,2.22
2018-02-19T07:48:59.567Z,2.25
2018-02-19T07:50:14.080Z,2.25
2018-02-19T07:51:28.173Z,2.28
2018-02-19T07:52:42.199Z,2.31
2018-02-19T07:53:56.234Z,2.32
2018-02-19T07:55:09.996Z,2.28
2018-02-19T07:56:24.012Z,2.29
2018-02-19T07:57:38.246Z,2.29
2018-02-19T07:58:52.270Z,2.31
2018-02-19T08:00:06.306Z,2.36
2018-02-19T08:01:20.799Z,2.4
2018-02-19T08:02:34.836Z,2.45
2018-02-19T08:03:49.547Z,2.46
2018-02-19T08:05:04.084Z,2.48
2018-02-19T08:06:18.577Z,2.49
2018-02-19T08:07:32.353Z,2.54
2018-02-19T08:08:46.568Z,2.52
2018-02-19T08:10:00.822Z,2.52
2018-02-19T08:11:14.604Z,2.58
2018-02-19T08:12:28.391Z,2.64
2018-02-19T08:13:43.055Z,2.7
2018-02-19T08:14:57.779Z,2.79
2018-02-19T08:16:12.253Z,2.85
2018-02-19T08:17:26.076Z,2.9
2018-02-19T08:18:39.804Z,2.94
2018-02-19T08:19:54.548Z,2.99
2018-02-19T08:21:08.559Z,3.04
2018-02-19T08:22:22.374Z,3.08
2018-02-19T08:23:36.667Z,3.12
2018-02-19T08:24:50.669Z,3.19
2018-02-19T08:26:05.162Z,3.25
2018-02-19T08:27:19.675Z,3.31
2018-02-19T08:28:33.692Z,3.41
2018-02-19T08:29:47.729Z,3.52
2018-02-19T08:31:01.967Z,3.64
2018-02-19T08:32:16.313Z,3.75
2018-02-19T08:33:30.078Z,3.85
2018-02-19T08:34:44.362Z,3.92
2018-02-19T08:35:58.073Z,3.95
2018-02-19T08:37:12.355Z,3.97
2018-02-19T08:38:26.350Z,3.96
2018-02-19T08:39:40.579Z,3.98
2018-02-19T08:40:54.591Z,3.98
2018-02-19T08:42:08.877Z,3.95
2018-02-19T08:43:22.870Z,3.91
2018-02-19T08:44:36.895Z,3.92
2018-02-19T08:45:50.890Z,3.93
2018-02-19T08:47:04.669Z,3.96
2018-02-19T08:48:18.674Z,3.97
2018-02-19T08:49:32.716Z,3.99
2018-02-19T08:50:47.114Z,3.94
2018-02-19T08:52:01.663Z,3.9
2018-02-19T08:53:15.917Z,3.86
2018-02-19T08:54:30.069Z,3.82
2018-02-19T08:55:44.329Z,3.8
2018-02-19T08:56:58.602Z,3.81
2018-02-19T08:58:12.590Z,3.78
2018-02-19T08:59:26.851Z,3.71
2018-02-19T09:00:40.974Z,3.66
2018-02-19T09:01:54.981Z,3.67
2018-02-19T09:03:09.252Z,3.69
2018-02-19T09:04:23.518Z,3.75
2018-02-19T09:05:37.633Z,3.81
2018-02-19T09:06:52.190Z,3.84
2018-02-19T09:08:05.971Z,3.89
2018-02-19T09:09:19.956Z,3.92
2018-02-19T09:10:34.447Z,3.91
2018-02-19T09:11:48.696Z,3.9
2018-02-19T09:13:02.707Z,3.91
2018-02-19T09:14:17.467Z,3.87
2018-02-19T09:15:31.709Z,3.85
2018-02-19T09:16:46.213Z,3.85
2018-02-19T09:18:00.010Z,3.86
2018-02-19T09:19:14.519Z,3.93
2018-02-19T09:20:29.296Z,3.96
2018-02-19T09:21:43.064Z,3.93
2018-02-19T09:22:57.106Z,3.95
2018-02-19T09:24:11.255Z,3.97
2018-02-19T09:25:25.775Z,4.01
2018-02-19T09:26:40.285Z,4.04
2018-02-19T09:27:54.569Z,4.04
2018-02-19T09:29:08.579Z,4.05
2018-02-19T09:30:22.330Z,4.07
2018-02-19T09:31:36.349Z,4.1
2018-02-19T09:32:50.866Z,4.14
2018-02-19T09:34:04.646Z,4.16
2018-02-19T09:35:19.427Z,4.17
2018-02-19T09:36:33.486Z,4.15
2018-02-19T09:37:47.516Z,4.14
2018-02-19T09:39:01.516Z,4.13
2018-02-19T09:40:15.527Z,4.11
2018-02-19T09:41:29.306Z,4.05
2018-02-19T09:42:43.927Z,4.03
2018-02-19T09:43:57.948Z,4.01
2018-02-19T09:45:11.988Z,4.01
2018-02-19T09:46:26.519Z,4.06
2018-02-19T09:47:41.340Z,4.17
2018-02-19T09:48:55.447Z,4.28
2018-02-19T09:50:10.227Z,4.39
2018-02-19T09:51:24.498Z,4.52
2018-02-19T09:52:38.275Z,4.62
2018-02-19T09:53:52.304Z,4.72
2018-02-19T09:55:06.583Z,4.8
2018-02-19T09:56:20.904Z,4.9
2018-02-19T09:57:35.075Z,4.94
2018-02-19T09:58:49.346Z,4.94
2018-02-19T10:00:03.850Z,4.94
2018-02-19T10:01:18.176Z,4.95
2018-02-19T10:02:31.945Z,4.91
2018-02-19T10:03:46.194Z,4.92
2018-02-19T10:05:00.727Z,4.9
2018-02-19T10:06:15.250Z,4.9
2018-02-19T10:07:30.021Z,4.89
2018-02-19T10:08:44.079Z,4.89
2018-02-19T10:09:58.395Z,4.88
2018-02-19T10:11:12.795Z,4.9
2018-02-19T10:12:27.085Z,4.91
2018-02-19T10:13:41.382Z,4.96
2018-02-19T10:14:56.165Z,5.06
2018-02-19T10:16:10.688Z,5.12
2018-02-19T10:17:24.976Z,5.21
2018-02-19T10:18:39.059Z,5.26
2018-02-19T10:19:53.588Z,5.32
2018-02-19T10:21:07.864Z,5.35
2018-02-19T10:22:21.723Z,5.37
2018-02-19T10:23:36.212Z,5.42
2018-02-19T10:24:50.227Z,5.49
2018-02-19T10:26:04.730Z,5.58
2018-02-19T10:27:18.747Z,5.63
2018-02-19T10:28:33.250Z,5.71
2018-02-19T10:29:46.771Z,5.73
2018-02-19T10:31:01.450Z,5.75
2018-02-19T10:32:15.716Z,5.79
2018-02-19T10:33:30.294Z,5.78
2018-02-19T10:34:44.788Z,5.8
2018-02-19T10:35:58.859Z,5.77
2018-02-19T10:37:13.118Z,5.72
2018-02-19T10:38:27.846Z,5.75
2018-02-19T10:39:41.680Z,5.78
2018-02-19T10:40:55.245Z,5.84
2018-02-19T10:42:09.270Z,5.87
2018-02-19T10:43:23.540Z,5.87
2018-02-19T10:44:37.862Z,5.91
2018-02-19T10:45:52.542Z,5.9
2018-02-19T10:47:07.054Z,5.84
2018-02-19T10:48:21.365Z,5.78
2018-02-19T10:49:35.729Z,5.78
2018-02-19T10:50:49.976Z,5.76
2018-02-19T10:52:04.048Z,5.77
2018-02-19T10:53:18.594Z,5.79
2018-02-19T10:54:32.857Z,5.81
2018-02-19T10:55:47.387Z,5.83
2018-02-19T10:57:01.679Z,5.79
2018-02-19T10:58:15.271Z,5.75
2018-02-19T10:59:29.036Z,5.74
2018-02-19T11:00:43.366Z,5.72
2018-02-19T11:01:57.623Z,5.73
2018-02-19T11:03:11.914Z,5.75
2018-02-19T11:04:26.293Z,5.82
2018-02-19T11:05:40.563Z,5.87
2018-02-19T11:06:55.129Z,5.93
2018-02-19T11:08:09.590Z,6.03
2018-02-19T11:09:23.652Z,6.14
2018-02-19T11:10:37.924Z,6.2
2018-02-19T11:11:51.670Z,6.28
2018-02-19T11:13:05.736Z,6.34
2018-02-19T11:14:20.102Z,6.42
2018-02-19T11:15:33.940Z,6.49
2018-02-19T11:16:48.193Z,6.56
2018-02-19T11:18:01.944Z,6.61
2018-02-19T11:19:15.983Z,6.62
2018-02-19T11:20:30.277Z,6.59
2018-02-19T11:21:44.326Z,6.58
2018-02-19T11:22:58.615Z,6.6
2018-02-19T11:24:12.644Z,6.65
2018-02-19T11:25:26.954Z,6.72
2018-02-19T11:26:41.425Z,6.82
2018-02-19T11:27:55.671Z,6.85
2018-02-19T11:29:10.166Z,6.89
2018-02-19T11:30:23.953Z,6.94
2018-02-19T11:31:37.786Z,7
2018-02-19T11:32:52.540Z,7.13
2018-02-19T11:34:06.431Z,7.24
2018-02-19T11:35:20.436Z,7.31
2018-02-19T11:36:34.986Z,7.38
2018-02-19T11:37:49.650Z,7.47
2018-02-19T11:39:03.912Z,7.55
2018-02-19T11:40:17.968Z,7.61
2018-02-19T11:41:31.943Z,7.67
2018-02-19T11:42:45.285Z,7.68
2018-02-19T11:43:59.559Z,7.68
2018-02-19T11:45:13.902Z,7.68
2018-02-19T11:46:28.426Z,7.68
2018-02-19T11:47:42.893Z,7.72
2018-02-19T11:48:57.194Z,7.77
2018-02-19T11:50:11.448Z,7.84
2018-02-19T11:51:25.991Z,7.89
2018-02-19T11:52:40.318Z,7.88
2018-02-19T11:53:54.678Z,7.82
2018-02-19T11:55:08.718Z,7.72
2018-02-19T11:56:22.995Z,7.64
2018-02-19T11:57:37.245Z,7.63
2018-02-19T11:58:51.766Z,7.67
2018-02-19T12:00:06.560Z,7.73
2018-02-19T12:01:20.802Z,7.8
2018-02-19T12:02:35.091Z,7.9
2018-02-19T12:03:49.647Z,8
2018-02-19T12:05:04.138Z,8.06
2018-02-19T12:06:18.436Z,8.11
2018-02-19T12:07:32.445Z,8.15
2018-02-19T12:08:46.993Z,8.16
2018-02-19T12:10:01.498Z,8.11
2018-02-19T12:11:15.408Z,8.02
2018-02-19T12:12:29.225Z,7.89
2018-02-19T12:13:43.219Z,7.84
2018-02-19T12:14:57.757Z,7.83
2018-02-19T12:16:11.990Z,7.86
2018-02-19T12:17:26.536Z,7.92
2018-02-19T12:18:40.801Z,7.96
2018-02-19T12:19:55.085Z,8.04
2018-02-19T12:21:09.587Z,8.09
2018-02-19T12:22:24.124Z,8.09
2018-02-19T12:23:38.136Z,8.09
2018-02-19T12:24:52.417Z,8.05
2018-02-19T12:26:06.703Z,8.05
2018-02-19T12:27:20.477Z,8.06
2018-02-19T12:28:34.773Z,8.09
2018-02-19T12:29:48.899Z,8.1
2018-02-19T12:31:03.384Z,8.09
2018-02-19T12:32:17.932Z,8.08
2018-02-19T12:33:32.316Z,8.04
2018-02-19T12:34:47.042Z,7.98
2018-02-19T12:36:15.997Z,7.84
2018-02-19T12:37:30.269Z,7.66
2018-02-19T12:38:44.532Z,7.61
2018-02-19T12:39:58.800Z,7.6
2018-02-19T12:41:13.662Z,7.57
2018-02-19T12:42:27.982Z,7.56
2018-02-19T12:43:42.612Z,7.55
2018-02-19T12:44:57.184Z,7.49
2018-02-19T12:46:10.749Z,7.34
2018-02-19T12:47:25.287Z,7.21
2018-02-19T12:48:38.858Z,7.11
2018-02-19T12:49:52.711Z,7.06
2018-02-19T12:51:07.296Z,7.04
2018-02-19T12:52:21.158Z,7.1
2018-02-19T12:53:35.975Z,7.15
2018-02-19T12:55:05.176Z,7.25
2018-02-19T12:56:19.719Z,7.37
2018-02-19T12:57:33.538Z,7.49
2018-02-19T12:58:47.926Z,7.55
2018-02-19T13:00:02.251Z,7.61
2018-02-19T13:01:17.148Z,7.59
2018-02-19T13:02:31.785Z,7.56
2018-02-19T13:03:45.352Z,7.56
2018-02-19T13:04:58.670Z,7.56
2018-02-19T13:06:13.196Z,7.59
2018-02-19T13:07:27.365Z,7.56
2018-02-19T13:08:42.075Z,7.47
2018-02-19T13:09:57.017Z,7.35
2018-02-19T13:11:11.290Z,7.26
2018-02-19T13:12:25.826Z,7.25
2018-02-19T13:13:40.590Z,7.29
2018-02-19T13:14:54.754Z,7.35
2018-02-19T13:16:09.548Z,7.33
2018-02-19T13:17:23.904Z,7.23
2018-02-19T13:18:38.455Z,7.15
2018-02-19T13:19:53.106Z,7.08
2018-02-19T13:21:07.943Z,7
2018-02-19T13:22:23.320Z,7.01
2018-02-19T13:23:37.927Z,7.06
2018-02-19T13:24:52.227Z,7.16
2018-02-19T13:26:06.690Z,7.24
2018-02-19T13:27:21.485Z,7.31
2018-02-19T13:28:36.071Z,7.32
2018-02-19T13:29:49.843Z,7.37
2018-02-19T13:31:03.897Z,7.38
2018-02-19T13:32:18.214Z,7.39
2018-02-19T13:33:33.086Z,7.43
2018-02-19T13:34:47.992Z,7.47
2018-02-19T13:36:02.402Z,7.43
2018-02-19T13:37:17.215Z,7.4
2018-02-19T13:38:31.832Z,7.38
2018-02-19T13:39:46.286Z,7.39
2018-02-19T13:41:00.600Z,7.36
2018-02-19T13:42:14.884Z,7.35
2018-02-19T13:43:29.350Z,7.32
2018-02-19T13:44:43.357Z,7.24
2018-02-19T13:45:58.049Z,7.23
2018-02-19T13:47:12.480Z,7.25
2018-02-19T13:48:26.639Z,7.31
2018-02-19T13:49:41.192Z,7.37
2018-02-19T13:50:55.728Z,7.4
2018-02-19T13:52:09.560Z,7.39
2018-02-19T13:53:24.138Z,7.34
2018-02-19T13:54:38.913Z,7.34
2018-02-19T13:55:53.503Z,7.31
2018-02-19T13:57:08.067Z,7.28
2018-02-19T13:58:22.577Z,7.27
2018-02-19T13:59:36.876Z,7.27
2018-02-19T14:00:51.242Z,7.26
2018-02-19T14:02:05.010Z,7.24
2018-02-19T14:03:19.941Z,7.25
2018-02-19T14:04:34.318Z,7.23
2018-02-19T14:05:49.138Z,7.23
2018-02-19T14:07:03.767Z,7.25
2018-02-19T14:08:18.279Z,7.25
2018-02-19T14:09:32.991Z,7.26
2018-02-19T14:10:47.340Z,7.32
2018-02-19T14:12:01.924Z,7.33
2018-02-19T14:13:16.956Z,7.34
2018-02-19T14:14:31.505Z,7.31
2018-02-19T14:15:46.226Z,7.27
2018-02-19T14:17:00.778Z,7.22
2018-02-19T14:18:15.016Z,7.19
2018-02-19T14:19:29.519Z,7.18
2018-02-19T14:20:43.866Z,7.14
2018-02-19T14:21:57.608Z,7.11
2018-02-19T14:23:12.548Z,7.11
2018-02-19T14:24:27.161Z,7.1
2018-02-19T14:25:41.727Z,7.09
2018-02-19T14:26:56.387Z,7.08
2018-02-19T14:28:10.206Z,7.09
2018-02-19T14:29:24.576Z,7.07
2018-02-19T14:30:39.246Z,7
2018-02-19T14:31:53.273Z,6.92
2018-02-19T14:33:07.559Z,6.84
2018-02-19T14:34:21.376Z,6.74
2018-02-19T14:35:35.200Z,6.62
2018-02-19T14:36:49.738Z,6.5
2018-02-19T14:38:18.910Z,6.42
2018-02-19T14:39:32.718Z,6.38
2018-02-19T14:40:46.611Z,6.36
2018-02-19T14:42:00.984Z,6.33
2018-02-19T14:43:15.290Z,6.31
2018-02-19T14:44:30.123Z,6.33
2018-02-19T14:45:44.536Z,6.33
2018-02-19T14:46:59.091Z,6.33
2018-02-19T14:48:13.101Z,6.34
2018-02-19T14:49:27.174Z,6.37
2018-02-19T14:50:41.774Z,6.41
2018-02-19T14:51:56.674Z,6.45
2018-02-19T14:53:10.835Z,6.47
2018-02-19T14:54:25.494Z,6.48
2018-02-19T14:55:40.215Z,6.48
2018-02-19T14:56:54.562Z,6.46
2018-02-19T14:58:09.180Z,6.42
2018-02-19T14:59:23.741Z,6.39
2018-02-19T15:00:38.061Z,6.38
2018-02-19T15:01:51.691Z,6.37
2018-02-19T15:03:05.329Z,6.36
2018-02-19T15:04:19.378Z,6.34
2018-02-19T15:05:33.421Z,6.31
2018-02-19T15:06:48.196Z,6.26
2018-02-19T15:08:02.241Z,6.19
2018-02-19T15:09:16.901Z,6.13
2018-02-19T15:10:30.671Z,6.1
2018-02-19T15:11:45.170Z,6.07
2018-02-19T15:12:59.616Z,6.09
2018-02-19T15:14:13.168Z,6.12
2018-02-19T15:15:27.309Z,6.15
2018-02-19T15:16:41.556Z,6.16
2018-02-19T15:17:55.379Z,6.18
2018-02-19T15:19:09.664Z,6.2
2018-02-19T15:20:23.992Z,6.22
2018-02-19T15:21:38.124Z,6.22
2018-02-19T15:22:52.511Z,6.23
2018-02-19T15:24:07.054Z,6.21
2018-02-19T15:25:21.346Z,6.19
2018-02-19T15:26:35.749Z,6.19
2018-02-19T15:27:49.798Z,6.19
2018-02-19T15:29:04.484Z,6.19
2018-02-19T15:30:18.139Z,6.15
2018-02-19T15:31:32.723Z,6.17
2018-02-19T15:32:47.283Z,6.16
2018-02-19T15:34:01.684Z,6.14
2018-02-19T15:35:16.492Z,6.12
2018-02-19T15:36:31.092Z,6.09
2018-02-19T15:37:45.808Z,6.09
2018-02-19T15:39:00.889Z,6.09
2018-02-19T15:40:14.809Z,6.1
2018-02-19T15:41:29.234Z,6.05
2018-02-19T15:42:43.810Z,6.04
2018-02-19T15:43:58.632Z,6.01
2018-02-19T15:45:13.665Z,5.95
2018-02-19T15:46:28.722Z,5.93
2018-02-19T15:47:43.330Z,5.87
2018-02-19T15:48:58.163Z,5.8
2018-02-19T15:50:13.070Z,5.77
2018-02-19T15:51:27.984Z,5.71
2018-02-19T15:52:42.618Z,5.7
2018-02-19T15:53:58.128Z,5.67
2018-02-19T15:55:12.408Z,5.69
2018-02-19T15:56:27.175Z,5.67
2018-02-19T15:57:42.035Z,5.68
2018-02-19T15:59:11.262Z,5.71
2018-02-19T16:00:25.429Z,5.71
2018-02-19T16:01:40.173Z,5.71
2018-02-19T16:02:55.007Z,5.68
2018-02-19T16:04:10.499Z,5.67
2018-02-19T16:05:25.695Z,5.64
2018-02-19T16:06:39.583Z,5.66
2018-02-19T16:07:53.344Z,5.67
2018-02-19T16:09:07.592Z,5.71
2018-02-19T16:10:22.042Z,5.71
2018-02-19T16:11:36.502Z,5.72
2018-02-19T16:12:51.407Z,5.69
2018-02-19T16:14:06.012Z,5.72
2018-02-19T16:15:20.382Z,5.75
2018-02-19T16:16:34.747Z,5.76
2018-02-19T16:17:49.115Z,5.73
2018-02-19T16:19:03.532Z,5.71
2018-02-19T16:20:17.980Z,5.69
2018-02-19T16:21:32.123Z,5.69
2018-02-19T16:22:45.700Z,5.69
2018-02-19T16:24:00.063Z,5.7
2018-02-19T16:25:14.615Z,5.69
2018-02-19T16:26:29.134Z,5.71
2018-02-19T16:27:44.006Z,5.73
2018-02-19T16:28:58.172Z,5.72
2018-02-19T16:30:12.707Z,5.7
2018-02-19T16:31:26.282Z,5.68
2018-02-19T16:32:40.920Z,5.68
2018-02-19T16:33:54.618Z,5.65
2018-02-19T16:35:09.225Z,5.64